Terminal Aerodrome Forecast
Issued by NWS Jackson, MS

Home | Current Version | Previous Version | Text Only | Print | Product List | Glossary On
Versions: 1 2 3 4 5 6 7 8 9 10 11 12 13 14 15 16
584
FTUS44 KJAN 171129
TAFGWO
TAF
KGWO 171129Z 1712/1812 18010KT P6SM VCSH BKN020 OVC040
     FM171300 25005KT 4SM -RA BR SCT015 OVC020
     FM172000 31008KT P6SM VCSH BKN012 OVC020
     FM172200 33005KT 4SM -RA BR BKN008 OVC015
     FM180400 02003KT 5SM BR OVC010
     FM181100 03006KT 4SM -RA BR OVC007=

USA.gov is the U.S. government's official web portal to all federal, state and local government web resources and services.